»·PEaware :: UAL722 KSAN-KSFO

UAL722 :: KSAN-KSFO

FLIGHT INFORMATION

Flight Status: Arrived
Operator:
United Airlines
More flights by this operator :: More flights under this callsign
Pilot: Alfredo R. (12181)
Aircraft: BOEING 737-800
(B738)
More flights by this aircraft type
Origin: KSAN San Diego Intl-Lindbergh
United States
Destination: KSFO San Francisco Intl
United States
More flights between these airports :: More routes between these airports
Route: PADRZ2 IKAYE RIZIN SPLNT STOKD SERFR SERFR4
File this flight plan on PilotEdge
Remarks:
Altitude:
(Current/Filed)
380ft
Speed:
(Current/Filed)
425kts
Departed: 08-Mar-20 08:33 PM
Arrived: 08-Mar-20 09:38 PM
Distance/Time
Traveled:
388nm/1:05
Distance/Time
To Go:
Arrived

Flight Plot

Page will automatically refresh every two minutes.

Flight plan parsing failed; only flown route is shown


Map Options




Map Legend


Flown Route
Filed Route
Departure Airport
Arrival Airport
Navaid (VOR, NDB)
Fix

Horizontal Profiles

Position Reports

Time Latitude Longitude Heading Altitude Ground
Speed
08-Mar-20 19:51 32.734708 -117.204189 170 17ft 0kts
08-Mar-20 19:52 32.734708 -117.204189 170 17ft 0kts
08-Mar-20 19:53 32.734708 -117.204189 170 17ft 0kts
08-Mar-20 19:54 32.734708 -117.204189 170 17ft 0kts
08-Mar-20 19:55 32.734708 -117.204189 170 17ft 0kts
08-Mar-20 19:56 32.734708 -117.204189 170 17ft 0kts
08-Mar-20 19:57 32.734708 -117.204189 170 17ft 0kts
08-Mar-20 19:58 32.734708 -117.204189 170 17ft 0kts
08-Mar-20 19:59 32.734708 -117.204189 170 17ft 0kts
08-Mar-20 20:00 32.734708 -117.204189 170 17ft 0kts
08-Mar-20 20:01 32.734708 -117.204189 170 17ft 0kts
08-Mar-20 20:02 32.734708 -117.204189 170 17ft 0kts
08-Mar-20 20:03 32.734708 -117.204189 170 17ft 0kts
08-Mar-20 20:04 32.734708 -117.204189 170 17ft 0kts
08-Mar-20 20:05 32.734708 -117.204189 170 17ft 0kts
08-Mar-20 20:06 32.734708 -117.204189 170 17ft 0kts
08-Mar-20 20:07 32.734708 -117.204189 170 17ft 0kts
08-Mar-20 20:08 32.734708 -117.204189 170 17ft 0kts
08-Mar-20 20:09 32.734708 -117.204189 170 17ft 0kts
08-Mar-20 20:10 32.734708 -117.204189 170 17ft 0kts
08-Mar-20 20:11 32.734708 -117.204189 170 17ft 0kts
08-Mar-20 20:12 32.734708 -117.204189 170 17ft 0kts
08-Mar-20 20:13 32.734708 -117.204189 170 17ft 0kts
08-Mar-20 20:14 32.734708 -117.204189 170 17ft 0kts
08-Mar-20 20:15 32.734708 -117.204189 170 17ft 0kts
08-Mar-20 20:16 32.734708 -117.204189 170 17ft 0kts
08-Mar-20 20:17 32.734817 -117.204211 170 17ft 2kts
08-Mar-20 20:18 32.735334 -117.204467 110 17ft 2kts
08-Mar-20 20:19 32.735110 -117.205047 50 17ft 1kts
08-Mar-20 20:20 32.735425 -117.204615 49 17ft 0kts
08-Mar-20 20:21 32.735425 -117.204615 49 17ft 0kts
08-Mar-20 20:22 32.735425 -117.204615 49 17ft 0kts
08-Mar-20 20:23 32.735425 -117.204615 49 17ft 0kts
08-Mar-20 20:24 32.735530 -117.204469 49 17ft 4kts
08-Mar-20 20:25 32.735315 -117.201181 106 17ft 17kts
08-Mar-20 20:26 32.733880 -117.195263 106 20ft 18kts
08-Mar-20 20:27 32.732245 -117.188514 106 18ft 22kts
08-Mar-20 20:28 32.730598 -117.181731 106 17ft 20kts
08-Mar-20 20:29 32.729510 -117.176740 75 22ft 5kts
08-Mar-20 20:30 32.729532 -117.176642 73 23ft 0kts
08-Mar-20 20:31 32.730086 -117.175906 335 24ft 6kts
08-Mar-20 20:32 32.732188 -117.184004 286 18ft 85kts
08-Mar-20 20:33 32.748962 -117.233858 307 1551ft 180kts
08-Mar-20 20:34 32.787503 -117.291967 303 3564ft 260kts
08-Mar-20 20:35 32.828895 -117.364720 306 7114ft 267kts
08-Mar-20 20:36 32.876336 -117.438026 305 10140ft 283kts
08-Mar-20 20:37 32.930498 -117.522137 304 12535ft 325kts
08-Mar-20 20:38 32.988640 -117.612721 303 14958ft 343kts
08-Mar-20 20:39 33.047436 -117.704528 302 16871ft 351kts
08-Mar-20 20:41 33.121051 -117.788649 314 19700ft 371kts
08-Mar-20 20:42 33.201737 -117.871079 310 22357ft 379kts
08-Mar-20 20:43 33.279588 -117.963424 308 24825ft 387kts
08-Mar-20 20:44 33.357266 -118.056385 308 26969ft 397kts
08-Mar-20 20:45 33.437558 -118.152697 308 28932ft 407kts
08-Mar-20 20:46 33.518483 -118.250014 307 30665ft 417kts
08-Mar-20 20:47 33.601682 -118.350345 307 32401ft 424kts
08-Mar-20 20:48 33.684745 -118.450681 306 34242ft 421kts
08-Mar-20 20:49 33.767530 -118.550958 306 35737ft 417kts
08-Mar-20 20:50 33.848473 -118.649322 306 36732ft 416kts
08-Mar-20 20:51 33.928978 -118.747514 305 37627ft 416kts
08-Mar-20 20:52 34.010447 -118.847235 306 38136ft 424kts
08-Mar-20 20:53 34.094475 -118.950434 306 38131ft 433kts
08-Mar-20 20:54 34.169717 -119.060714 294 38124ft 421kts
08-Mar-20 20:55 34.231238 -119.180171 293 38125ft 419kts
08-Mar-20 20:56 34.292721 -119.300027 294 38126ft 422kts
08-Mar-20 20:57 34.354472 -119.420709 294 38122ft 421kts
08-Mar-20 20:58 34.417561 -119.539510 302 38110ft 429kts
08-Mar-20 20:59 34.501265 -119.644117 307 38112ft 434kts
08-Mar-20 21:00 34.586098 -119.748361 306 38117ft 434kts
08-Mar-20 21:00 34.657130 -119.836089 306 38123ft 438kts
08-Mar-20 21:02 34.756844 -119.959625 307 38104ft 437kts
08-Mar-20 21:03 34.841778 -120.065260 307 38103ft 437kts
08-Mar-20 21:03 34.912725 -120.153763 307 38112ft 437kts
08-Mar-20 21:05 35.011750 -120.277696 307 38113ft 438kts
08-Mar-20 21:05 35.082316 -120.366294 307 38112ft 438kts
08-Mar-20 21:06 35.172262 -120.468475 311 38086ft 442kts
08-Mar-20 21:07 35.262389 -120.569228 310 38084ft 441kts
08-Mar-20 21:08 35.353169 -120.671298 310 38092ft 441kts
08-Mar-20 21:09 35.443324 -120.773078 310 38093ft 442kts
08-Mar-20 21:10 35.537628 -120.869940 316 38102ft 447kts
08-Mar-20 21:11 35.637027 -120.961346 316 38102ft 447kts
08-Mar-20 21:12 35.735996 -121.053344 316 37577ft 449kts
08-Mar-20 21:13 35.834062 -121.144701 316 35639ft 424kts
08-Mar-20 21:14 35.929292 -121.233944 316 33626ft 426kts
08-Mar-20 21:15 36.026457 -121.325364 316 31607ft 434kts
08-Mar-20 21:16 36.128247 -121.412634 322 29582ft 442kts
08-Mar-20 21:17 36.232309 -121.493180 322 27517ft 433kts
08-Mar-20 21:18 36.333347 -121.572113 322 25493ft 416kts
08-Mar-20 21:19 36.431293 -121.648958 323 23635ft 405kts
08-Mar-20 21:20 36.525105 -121.722822 323 21835ft 394kts
08-Mar-20 21:21 36.616926 -121.795355 323 20032ft 383kts
08-Mar-20 21:22 36.706088 -121.866030 323 18228ft 373kts
08-Mar-20 21:23 36.803793 -121.912331 343 16413ft 368kts
08-Mar-20 21:24 36.903675 -121.939907 343 14645ft 360kts
08-Mar-20 21:25 37.000907 -121.971535 339 13039ft 352kts
08-Mar-20 21:26 37.093095 -122.007574 339 11457ft 344kts
08-Mar-20 21:27 37.181816 -122.042306 340 9830ft 319kts
08-Mar-20 21:28 37.257218 -122.071822 340 8382ft 290kts
08-Mar-20 21:29 37.330805 -122.100830 339 6972ft 284kts
08-Mar-20 21:30 37.402861 -122.128087 340 5766ft 255kts
08-Mar-20 21:31 37.468041 -122.150409 341 4766ft 225kts
08-Mar-20 21:32 37.526723 -122.168809 341 3726ft 204kts
08-Mar-20 21:33 37.553320 -122.218395 291 2918ft 161kts
08-Mar-20 21:34 37.574740 -122.270472 295 1614ft 155kts
08-Mar-20 21:35 37.593310 -122.314615 295 838ft 142kts
08-Mar-20 21:36 37.611747 -122.358457 296 52ft 142kts
08-Mar-20 21:37 37.623592 -122.386894 296 27ft 40kts
08-Mar-20 21:38 37.621866 -122.391288 208 30ft 10kts
08-Mar-20 21:39 37.619611 -122.391263 178 30ft 9kts
08-Mar-20 21:40 37.618581 -122.391783 207 30ft 0kts

Navigation Log

Ident Type
Flight plan parsing failed, navigation log unavailable